createdAt,value
2022-12-19T00:00:49.670Z,25.75
2022-12-19T00:03:19.573Z,26.02
2022-12-19T00:05:48.313Z,28.30
2022-12-19T00:08:18.436Z,25.35
2022-12-19T00:11:03.136Z,28.45
2022-12-19T00:13:40.176Z,27.55
2022-12-19T00:16:14.835Z,24.42
2022-12-19T00:18:47.608Z,25.92
2022-12-19T00:21:22.979Z,25.17
2022-12-19T00:23:52.719Z,25.33
2022-12-19T00:26:24.837Z,30.38
2022-12-19T00:28:56.969Z,24.83
2022-12-19T00:31:28.128Z,28.58
2022-12-19T00:33:57.754Z,27.45
2022-12-19T00:36:29.206Z,27.00
2022-12-19T00:38:59.709Z,26.55
2022-12-19T00:41:31.884Z,30.27
2022-12-19T00:44:03.357Z,26.92
2022-12-19T00:46:35.259Z,26.90
2022-12-19T00:49:05.887Z,28.45
2022-12-19T00:51:37.245Z,27.58
2022-12-19T00:54:07.448Z,28.00
2022-12-19T00:56:39.326Z,27.70
2022-12-19T00:59:11.690Z,25.50
2022-12-19T01:01:42.972Z,27.48
2022-12-19T01:04:33.382Z,28.38
2022-12-19T01:07:06.769Z,31.02
2022-12-19T01:09:37.460Z,26.58
2022-12-19T01:12:26.120Z,26.73
2022-12-19T01:15:03.740Z,27.95
2022-12-19T01:17:43.596Z,28.00
2022-12-19T01:20:15.901Z,25.08
2022-12-19T01:22:44.574Z,28.83
2022-12-19T01:25:16.243Z,30.40
2022-12-19T01:27:46.247Z,23.48
2022-12-19T01:30:16.787Z,29.45
2022-12-19T01:32:46.827Z,26.73
2022-12-19T01:35:20.658Z,27.55
2022-12-19T01:37:51.369Z,28.17
2022-12-19T01:40:21.178Z,27.92
2022-12-19T01:42:52.356Z,28.25
2022-12-19T01:45:34.949Z,29.50
2022-12-19T01:48:19.058Z,28.35
2022-12-19T01:51:01.152Z,28.40
2022-12-19T01:53:48.245Z,27.00
2022-12-19T01:56:25.066Z,27.38
2022-12-19T01:59:06.321Z,30.35
2022-12-19T02:01:52.100Z,29.40
2022-12-19T02:04:32.478Z,23.55
2022-12-19T02:07:15.616Z,28.25
2022-12-19T02:09:47.512Z,26.10
2022-12-19T02:12:21.928Z,27.08
2022-12-19T02:14:53.301Z,25.85
2022-12-19T02:17:37.575Z,29.40
2022-12-19T02:20:51.088Z,26.95
2022-12-19T02:23:49.013Z,29.40
2022-12-19T02:26:39.692Z,26.30
2022-12-19T02:29:31.064Z,25.95
2022-12-19T02:32:08.853Z,29.17
2022-12-19T02:34:48.282Z,27.42
2022-12-19T02:37:23.412Z,30.88
2022-12-19T02:40:00.028Z,25.80
2022-12-19T02:42:33.032Z,28.48
2022-12-19T02:45:08.190Z,27.48
2022-12-19T02:47:41.064Z,28.25
2022-12-19T02:50:10.895Z,28.88
2022-12-19T02:52:47.225Z,29.35
2022-12-19T02:55:23.808Z,28.58
2022-12-19T02:58:12.113Z,26.58
2022-12-19T03:00:53.347Z,26.60
2022-12-19T03:03:57.480Z,25.77
2022-12-19T03:06:32.776Z,27.40
2022-12-19T03:09:09.002Z,26.95
2022-12-19T03:11:42.091Z,28.95
2022-12-19T03:14:17.908Z,31.48
2022-12-19T03:16:47.209Z,25.08
2022-12-19T03:19:18.499Z,24.98
2022-12-19T03:21:52.872Z,24.63
2022-12-19T03:24:23.511Z,24.77
2022-12-19T03:26:58.402Z,25.63
2022-12-19T03:29:33.995Z,26.13
2022-12-19T03:32:06.739Z,26.85
2022-12-19T03:34:41.689Z,25.98
2022-12-19T03:37:17.363Z,24.80
2022-12-19T03:39:49.849Z,29.88
2022-12-19T03:42:40.188Z,28.38
2022-12-19T03:45:11.876Z,25.88
2022-12-19T03:47:49.247Z,27.42
2022-12-19T03:50:20.918Z,26.88
2022-12-19T03:53:02.631Z,28.80
2022-12-19T03:55:37.917Z,26.42
2022-12-19T03:58:11.407Z,27.52
2022-12-19T04:00:47.543Z,24.45
2022-12-19T04:03:18.888Z,26.48
2022-12-19T04:05:51.114Z,28.30
2022-12-19T04:08:21.431Z,28.95
2022-12-19T04:10:56.500Z,30.60
2022-12-19T04:13:31.656Z,23.98
2022-12-19T04:16:11.441Z,23.63
2022-12-19T04:18:45.057Z,22.58
2022-12-19T04:21:20.971Z,25.10
2022-12-19T04:23:55.787Z,28.15
2022-12-19T04:26:28.054Z,28.35
2022-12-19T04:29:02.750Z,26.08
2022-12-19T04:34:02.197Z,23.85
2022-12-19T04:36:39.107Z,26.73
2022-12-19T04:39:08.372Z,26.60
2022-12-19T04:41:37.351Z,25.70
2022-12-19T04:44:08.066Z,29.63
2022-12-19T04:46:36.804Z,28.00
2022-12-19T04:49:05.983Z,27.48
2022-12-19T04:51:37.073Z,28.95
2022-12-19T04:54:07.222Z,27.42
2022-12-19T04:56:36.171Z,28.52
2022-12-19T04:59:05.231Z,26.02
2022-12-19T05:01:35.314Z,30.52
2022-12-19T05:04:05.141Z,27.70
2022-12-19T05:06:36.592Z,28.02
2022-12-19T05:09:05.710Z,26.25
2022-12-19T05:11:34.834Z,26.75
2022-12-19T05:14:04.352Z,31.83
2022-12-19T05:16:33.296Z,30.92
2022-12-19T05:19:02.864Z,28.63
2022-12-19T05:21:32.489Z,29.88
2022-12-19T05:24:03.004Z,30.85
2022-12-19T05:26:31.530Z,29.63
2022-12-19T05:29:01.062Z,28.10
2022-12-19T05:31:29.998Z,28.63
2022-12-19T05:34:00.480Z,28.63
2022-12-19T05:36:32.564Z,28.00
2022-12-19T05:39:04.387Z,29.60
2022-12-19T05:41:34.854Z,29.20
2022-12-19T05:44:04.648Z,27.08
2022-12-19T05:46:34.780Z,29.85
2022-12-19T05:49:04.592Z,28.25
2022-12-19T05:51:33.432Z,28.85
2022-12-19T05:54:04.589Z,27.00
2022-12-19T05:56:33.917Z,27.90
2022-12-19T05:59:03.159Z,29.95
2022-12-19T06:01:33.054Z,26.52
2022-12-19T06:04:02.109Z,28.30
2022-12-19T06:06:31.268Z,28.40
2022-12-19T06:09:02.206Z,27.35
2022-12-19T06:11:33.152Z,31.02
2022-12-19T06:14:02.794Z,27.63
2022-12-19T06:16:31.974Z,30.40
2022-12-19T06:19:01.143Z,29.13
2022-12-19T06:21:30.424Z,25.15
2022-12-19T06:24:00.446Z,27.98
2022-12-19T06:26:30.160Z,27.70
2022-12-19T06:29:01.416Z,27.38
2022-12-19T06:31:31.296Z,29.70
2022-12-19T06:34:00.954Z,25.58
2022-12-19T06:36:32.088Z,26.50
2022-12-19T06:39:01.963Z,31.73
2022-12-19T06:41:49.113Z,27.63
2022-12-19T06:44:19.221Z,27.15
2022-12-19T06:46:53.201Z,27.20
2022-12-19T06:49:23.443Z,29.63
2022-12-19T06:51:52.851Z,25.98
2022-12-19T06:54:22.290Z,23.98
2022-12-19T06:56:51.804Z,27.40
2022-12-19T06:59:23.228Z,29.13
2022-12-19T07:01:58.204Z,27.05
2022-12-19T07:04:32.743Z,28.98
2022-12-19T07:09:34.602Z,24.30
2022-12-19T07:12:07.097Z,25.88
2022-12-19T07:14:37.334Z,27.27
2022-12-19T07:17:07.901Z,24.05
2022-12-19T07:19:37.559Z,26.73
2022-12-19T07:22:08.527Z,23.63
2022-12-19T07:24:38.387Z,27.83
2022-12-19T07:27:10.779Z,26.00
2022-12-19T07:29:42.106Z,26.98
2022-12-19T07:32:11.189Z,24.95
2022-12-19T07:34:40.547Z,23.00
2022-12-19T07:37:09.613Z,24.80
2022-12-19T07:39:38.603Z,23.58
2022-12-19T07:42:08.831Z,22.13
2022-12-19T07:44:42.021Z,21.75
2022-12-19T07:47:11.307Z,22.38
2022-12-19T07:49:41.633Z,21.83
2022-12-19T07:52:11.927Z,24.58
2022-12-19T07:54:42.038Z,24.13
2022-12-19T07:57:11.497Z,24.88
2022-12-19T07:59:42.011Z,28.58
2022-12-19T08:02:12.086Z,26.95
2022-12-19T08:04:41.901Z,26.02
2022-12-19T08:07:11.097Z,26.08
2022-12-19T08:09:40.769Z,28.20
2022-12-19T08:12:10.920Z,23.45
2022-12-19T08:14:42.207Z,25.92
2022-12-19T08:17:20.132Z,24.73
2022-12-19T08:19:49.582Z,25.70
2022-12-19T08:22:19.031Z,23.65
2022-12-19T08:24:48.636Z,26.17
2022-12-19T08:27:18.916Z,24.48
2022-12-19T08:29:49.521Z,22.92
2022-12-19T08:32:21.651Z,23.95
2022-12-19T08:34:51.508Z,24.35
2022-12-19T08:37:20.818Z,25.95
2022-12-19T08:39:50.504Z,24.63
2022-12-19T08:42:19.817Z,26.58
2022-12-19T08:44:50.910Z,23.17
2022-12-19T08:47:20.184Z,25.50
2022-12-19T08:49:49.903Z,27.38
2022-12-19T08:52:19.521Z,21.33
2022-12-19T08:54:53.133Z,23.02
2022-12-19T08:57:22.091Z,20.05
2022-12-19T08:59:52.463Z,20.73
2022-12-19T09:02:22.294Z,24.58
2022-12-19T09:05:59.735Z,23.00
2022-12-19T09:07:42.253Z,21.00
2022-12-19T09:10:17.657Z,25.50
2022-12-19T09:12:52.920Z,20.98
2022-12-19T09:15:27.020Z,23.90
2022-12-19T09:17:56.668Z,24.65
2022-12-19T09:20:26.462Z,18.30
2022-12-19T09:22:55.447Z,20.48
2022-12-19T09:25:25.270Z,23.70
2022-12-19T09:28:26.475Z,19.33
2022-12-19T09:30:46.342Z,24.38
2022-12-19T09:33:16.345Z,19.40
2022-12-19T09:35:51.891Z,23.58
2022-12-19T09:38:22.288Z,24.67
2022-12-19T09:41:04.441Z,21.08
2022-12-19T09:43:44.088Z,20.02
2022-12-19T09:46:20.508Z,24.75
2022-12-19T09:48:58.296Z,22.00
2022-12-19T09:51:37.006Z,19.70
2022-12-19T09:54:15.891Z,21.52
2022-12-19T09:56:47.154Z,22.38
2022-12-19T09:59:26.153Z,19.58
2022-12-19T10:02:21.257Z,23.25
2022-12-19T10:05:01.314Z,21.45
2022-12-19T10:08:07.137Z,21.42
2022-12-19T10:12:34.896Z,22.73
2022-12-19T10:13:48.108Z,22.88
2022-12-19T10:16:27.367Z,24.42
2022-12-19T10:19:01.900Z,19.88
2022-12-19T10:22:15.880Z,22.02
2022-12-19T10:25:00.547Z,18.15
2022-12-19T10:27:58.790Z,18.25
2022-12-19T10:30:36.459Z,21.10
2022-12-19T10:33:19.958Z,18.70
2022-12-19T10:35:57.567Z,20.85
2022-12-19T10:38:38.821Z,18.45
2022-12-19T10:41:21.245Z,23.80
2022-12-19T10:43:59.420Z,17.40
2022-12-19T10:46:39.444Z,18.00
2022-12-19T10:49:17.377Z,19.50
2022-12-19T10:52:00.364Z,15.10
2022-12-19T10:54:44.206Z,18.55
2022-12-19T10:57:21.289Z,18.02
2022-12-19T10:59:59.183Z,19.02
2022-12-19T11:02:36.303Z,16.73
2022-12-19T11:05:21.436Z,17.33
2022-12-19T11:08:03.614Z,15.85
2022-12-19T11:11:13.824Z,18.42
2022-12-19T11:17:38.672Z,17.13
2022-12-19T11:22:07.356Z,19.55
2022-12-19T11:29:35.301Z,20.48
2022-12-19T11:29:41.754Z,17.98
2022-12-19T11:29:41.907Z,19.55
2022-12-19T11:30:08.656Z,19.10
2022-12-19T11:34:14.945Z,18.23
2022-12-19T11:36:49.176Z,17.77
2022-12-19T11:39:24.188Z,19.23
2022-12-19T11:42:02.185Z,15.77
2022-12-19T11:44:36.373Z,17.20
2022-12-19T11:47:19.611Z,15.13
2022-12-19T11:49:57.959Z,19.02
2022-12-19T11:53:04.196Z,18.83
2022-12-19T11:55:37.267Z,17.42
2022-12-19T11:58:10.366Z,19.60
2022-12-19T12:00:47.339Z,17.52
2022-12-19T12:03:59.216Z,15.35
2022-12-19T12:06:35.735Z,15.48
2022-12-19T12:11:08.745Z,17.13
2022-12-19T12:17:34.912Z,17.27
2022-12-19T12:28:01.879Z,16.27
2022-12-19T12:31:16.554Z,15.85
2022-12-19T12:31:21.025Z,16.83
2022-12-19T12:31:46.925Z,13.98
2022-12-19T12:31:50.627Z,14.38
2022-12-19T12:31:56.859Z,14.80
2022-12-19T12:35:50.033Z,15.60
2022-12-19T12:39:56.662Z,16.15
2022-12-19T12:42:41.086Z,11.77
2022-12-19T12:45:21.098Z,10.40
2022-12-19T12:47:53.631Z,16.10
2022-12-19T12:50:26.919Z,15.63
2022-12-19T12:52:59.664Z,13.32
2022-12-19T12:55:32.459Z,13.45
2022-12-19T12:58:02.774Z,13.65
2022-12-19T13:00:34.717Z,12.55
2022-12-19T13:03:12.187Z,12.15
2022-12-19T13:05:56.052Z,15.40
2022-12-19T13:08:48.132Z,12.80
2022-12-19T13:11:55.936Z,13.27
2022-12-19T13:14:47.816Z,11.98
2022-12-19T13:17:47.309Z,12.32
2022-12-19T13:20:45.656Z,11.60
2022-12-19T13:23:35.918Z,11.40
2022-12-19T13:26:06.152Z,11.65
2022-12-19T13:28:41.935Z,11.70
2022-12-19T13:31:23.616Z,10.63
2022-12-19T13:34:20.805Z,11.45
2022-12-19T13:39:54.905Z,11.45
2022-12-19T13:40:11.107Z,10.82
2022-12-19T13:43:10.726Z,12.65
2022-12-19T13:45:43.409Z,11.10
2022-12-19T13:48:17.807Z,11.93
2022-12-19T13:53:22.155Z,12.55
2022-12-19T13:55:51.619Z,11.43
2022-12-19T13:58:29.375Z,9.57
2022-12-19T14:01:03.073Z,9.77
2022-12-19T14:03:40.999Z,9.32
2022-12-19T14:06:20.215Z,9.27
2022-12-19T14:09:37.489Z,9.00
2022-12-19T14:13:46.620Z,9.00
2022-12-19T14:15:12.392Z,12.85
2022-12-19T14:17:42.413Z,10.60
2022-12-19T14:22:01.553Z,11.32
2022-12-19T14:23:11.867Z,11.77
2022-12-19T14:28:15.248Z,11.13
2022-12-19T14:28:45.415Z,10.57
2022-12-19T14:31:20.458Z,12.23
2022-12-19T14:36:49.360Z,10.05
2022-12-19T14:39:28.946Z,9.63
2022-12-19T14:43:14.845Z,12.02
2022-12-19T14:52:08.020Z,10.25
2022-12-19T14:52:34.427Z,11.52
2022-12-19T14:54:31.210Z,9.98
2022-12-19T14:58:07.894Z,10.35
2022-12-19T15:01:07.139Z,10.40
2022-12-19T15:03:23.386Z,8.95
2022-12-19T15:07:05.297Z,9.80
2022-12-19T15:10:58.118Z,9.32
2022-12-19T15:14:03.886Z,12.02
2022-12-19T15:15:19.673Z,9.57
2022-12-19T15:17:51.467Z,10.43
2022-12-19T15:20:23.842Z,8.57
2022-12-19T15:22:53.872Z,8.00
2022-12-19T15:26:01.368Z,9.43
2022-12-19T15:28:16.388Z,9.43
2022-12-19T15:30:52.432Z,8.07
2022-12-19T15:33:21.963Z,9.02
2022-12-19T15:35:50.543Z,10.10
2022-12-19T15:38:19.772Z,10.23
2022-12-19T15:40:51.129Z,11.48
2022-12-19T15:44:01.355Z,9.43
2022-12-19T15:46:14.499Z,8.82
2022-12-19T15:48:49.480Z,9.48
2022-12-19T15:51:19.150Z,9.15
2022-12-19T15:53:49.192Z,8.52
2022-12-19T15:56:28.764Z,7.55
2022-12-19T15:59:00.277Z,9.27
2022-12-19T16:01:33.088Z,8.18
2022-12-19T16:04:04.043Z,8.75
2022-12-19T16:06:38.833Z,8.35
2022-12-19T16:11:45.659Z,10.52
2022-12-19T16:14:15.244Z,8.45
2022-12-19T16:16:51.745Z,8.00
2022-12-19T16:19:26.169Z,8.13
2022-12-19T16:21:56.253Z,8.63
2022-12-19T16:24:25.766Z,8.95
2022-12-19T16:26:56.956Z,10.35
2022-12-19T16:29:28.481Z,8.82
2022-12-19T16:32:02.530Z,8.30
2022-12-19T16:34:32.284Z,10.83
2022-12-19T16:37:01.399Z,8.45
2022-12-19T16:39:30.908Z,9.65
2022-12-19T16:42:00.357Z,8.45
2022-12-19T16:44:34.602Z,7.13
2022-12-19T16:47:05.663Z,8.27
2022-12-19T16:49:35.272Z,6.97
2022-12-19T16:52:05.376Z,8.95
2022-12-19T16:54:34.023Z,8.57
2022-12-19T16:57:06.916Z,8.95
2022-12-19T16:59:40.053Z,10.27
2022-12-19T17:02:37.417Z,7.50
2022-12-19T17:05:10.151Z,8.80
2022-12-19T17:07:39.381Z,8.25
2022-12-19T17:10:11.573Z,7.93
2022-12-19T17:12:42.080Z,8.68
2022-12-19T17:15:23.562Z,8.40
2022-12-19T17:17:58.823Z,8.20
2022-12-19T17:20:36.598Z,6.70
2022-12-19T17:23:17.652Z,7.68
2022-12-19T17:25:46.892Z,7.43
2022-12-19T17:28:16.470Z,7.93
2022-12-19T17:30:50.623Z,8.68
2022-12-19T17:33:24.175Z,7.72
2022-12-19T17:35:54.085Z,8.98
2022-12-19T17:38:23.687Z,8.43
2022-12-19T17:40:56.126Z,7.15
2022-12-19T17:43:25.377Z,7.25
2022-12-19T17:45:55.983Z,7.22
2022-12-19T17:48:30.358Z,7.53
2022-12-19T17:51:00.241Z,6.03
2022-12-19T17:53:31.939Z,8.15
2022-12-19T17:56:08.249Z,8.05
2022-12-19T17:58:37.795Z,8.02
2022-12-19T18:01:07.714Z,6.63
2022-12-19T18:03:41.202Z,6.78
2022-12-19T18:06:12.387Z,7.00
2022-12-19T18:08:42.149Z,6.65
2022-12-19T18:11:19.061Z,7.25
2022-12-19T18:13:49.153Z,6.18
2022-12-19T18:16:20.976Z,6.68
2022-12-19T18:18:54.900Z,6.40
2022-12-19T18:21:24.939Z,6.53
2022-12-19T18:23:55.373Z,7.25
2022-12-19T18:26:28.412Z,7.13
2022-12-19T18:28:57.954Z,7.25
2022-12-19T18:31:27.585Z,7.75
2022-12-19T18:34:06.992Z,7.95
2022-12-19T18:36:41.738Z,5.80
2022-12-19T18:39:20.796Z,6.78
2022-12-19T18:41:52.702Z,8.13
2022-12-19T18:44:24.524Z,6.50
2022-12-19T18:46:54.419Z,7.45
2022-12-19T18:49:26.105Z,6.35
2022-12-19T18:51:55.572Z,5.47
2022-12-19T18:54:29.027Z,7.30
2022-12-19T18:57:01.356Z,7.53
2022-12-19T18:59:30.945Z,6.80
2022-12-19T19:02:00.739Z,8.23
2022-12-19T19:04:32.944Z,6.45
2022-12-19T19:07:02.305Z,5.72
2022-12-19T19:09:31.453Z,6.15
2022-12-19T19:12:19.431Z,6.80
2022-12-19T19:14:48.901Z,6.82
2022-12-19T19:17:26.549Z,6.65
2022-12-19T19:19:57.876Z,6.57
2022-12-19T19:22:27.364Z,6.38
2022-12-19T19:24:59.843Z,5.63
2022-12-19T19:27:29.573Z,6.60
2022-12-19T19:30:01.245Z,6.95
2022-12-19T19:32:30.253Z,5.72
2022-12-19T19:35:02.323Z,6.25
2022-12-19T19:37:32.298Z,5.28
2022-12-19T19:40:02.321Z,7.40
2022-12-19T19:42:34.706Z,6.50
2022-12-19T19:45:05.371Z,7.15
2022-12-19T19:47:37.173Z,5.63
2022-12-19T19:50:09.421Z,4.97
2022-12-19T19:52:39.119Z,7.43
2022-12-19T19:55:14.665Z,6.47
2022-12-19T19:57:44.065Z,7.97
2022-12-19T20:00:14.683Z,6.28
2022-12-19T20:02:44.171Z,7.75
2022-12-19T20:05:15.647Z,6.20
2022-12-19T20:07:45.383Z,5.82
2022-12-19T20:10:17.351Z,7.63
2022-12-19T20:12:47.046Z,6.55
2022-12-19T20:15:36.640Z,6.05
2022-12-19T20:18:06.906Z,5.90
2022-12-19T20:20:48.213Z,6.63
2022-12-19T20:23:17.115Z,6.70
2022-12-19T20:25:48.500Z,5.32
2022-12-19T20:28:17.826Z,6.07
2022-12-19T20:30:47.591Z,6.85
2022-12-19T20:33:18.272Z,5.18
2022-12-19T20:35:48.584Z,5.60
2022-12-19T20:38:17.224Z,5.95
2022-12-19T20:40:47.677Z,6.43
2022-12-19T20:43:18.061Z,6.38
2022-12-19T20:45:47.649Z,5.60
2022-12-19T20:48:17.257Z,5.63
2022-12-19T20:50:46.580Z,5.70
2022-12-19T20:53:17.907Z,5.57
2022-12-19T20:55:57.777Z,6.00
2022-12-19T20:58:28.435Z,6.30
2022-12-19T21:00:58.984Z,5.93
2022-12-19T21:03:29.816Z,6.25
2022-12-19T21:05:59.431Z,5.57
2022-12-19T21:08:29.338Z,5.38
2022-12-19T21:10:59.175Z,5.13
2022-12-19T21:13:33.236Z,6.93
2022-12-19T21:16:07.159Z,7.30
2022-12-19T21:18:40.190Z,7.57
2022-12-19T21:21:13.721Z,7.72
2022-12-19T21:23:47.613Z,6.72
2022-12-19T21:26:16.455Z,6.00
2022-12-19T21:28:47.092Z,5.75
2022-12-19T21:31:20.982Z,6.53
2022-12-19T21:33:51.652Z,5.93
2022-12-19T21:36:26.401Z,5.63
2022-12-19T21:38:59.029Z,6.82
2022-12-19T21:41:27.801Z,5.57
2022-12-19T21:43:58.598Z,5.70
2022-12-19T21:46:31.148Z,5.57
2022-12-19T21:49:01.690Z,5.47
2022-12-19T21:51:33.351Z,6.07
2022-12-19T21:54:06.170Z,5.65
2022-12-19T21:56:40.458Z,6.05
2022-12-19T21:59:13.897Z,5.53
2022-12-19T22:01:43.809Z,5.40
2022-12-19T22:04:14.890Z,5.82
2022-12-19T22:06:44.117Z,4.63
2022-12-19T22:09:16.942Z,5.25
2022-12-19T22:11:46.717Z,4.57
2022-12-19T22:14:17.605Z,5.07
2022-12-19T22:16:47.288Z,4.45
2022-12-19T22:19:18.548Z,4.07
2022-12-19T22:21:49.634Z,4.57
2022-12-19T22:24:21.054Z,4.78
2022-12-19T22:26:50.832Z,4.55
2022-12-19T22:29:19.853Z,5.18
2022-12-19T22:31:49.808Z,4.97
2022-12-19T22:34:21.688Z,6.00
2022-12-19T22:36:50.864Z,6.15
2022-12-19T22:39:22.560Z,6.45
2022-12-19T22:41:52.138Z,5.63
2022-12-19T22:44:24.074Z,5.95
2022-12-19T22:46:54.411Z,5.03
2022-12-19T22:49:24.169Z,5.47
2022-12-19T22:51:54.095Z,5.15
2022-12-19T22:54:24.386Z,5.70
2022-12-19T22:56:54.152Z,4.50
2022-12-19T22:59:23.974Z,4.60
2022-12-19T23:01:54.293Z,4.40
2022-12-19T23:04:24.356Z,4.90
2022-12-19T23:06:53.879Z,5.13
2022-12-19T23:09:25.001Z,5.82
2022-12-19T23:11:54.525Z,4.53
2022-12-19T23:14:23.699Z,5.20
2022-12-19T23:16:53.596Z,6.65
2022-12-19T23:19:23.292Z,5.15
2022-12-19T23:21:52.504Z,4.05
2022-12-19T23:24:22.094Z,4.80
2022-12-19T23:26:53.159Z,4.78
2022-12-19T23:29:22.677Z,5.50
2022-12-19T23:31:52.408Z,4.60
2022-12-19T23:34:22.277Z,4.80
2022-12-19T23:39:40.472Z,4.50
2022-12-19T23:42:10.977Z,4.28
2022-12-19T23:44:41.386Z,4.15
2022-12-19T23:47:11.513Z,4.20
2022-12-19T23:49:41.856Z,4.43
2022-12-19T23:52:12.672Z,4.60
2022-12-19T23:54:42.184Z,3.95
2022-12-19T23:57:13.020Z,3.88
2022-12-19T23:59:42.019Z,3.92
